ראשי / חיפושים אחרונים

חיפושים אחרונים

לוחית
סוג רכב
דגם
שנה
תאריך חיפוש
שעת חיפוש
17586102 טויוטה טורקיה C-HR HYBRID 2019 02/09/2026 03:32:22
1531539 אלפא רומיאו איטליה ALFA MITO 2016 02/09/2026 03:32:21
49153801 סקודה צ'כיה OCTAVIA 2018 02/09/2026 03:32:20
1665676 ב מ וו גרמניה 316I 2013 02/09/2026 03:32:17
32035203 ג'יפ ארהב" WRANGLER UNLIMI 2023 02/09/2026 03:32:15
12184904 ג'אקו סין JAECOO 7 PHEV 2024 02/09/2026 03:32:12
88883901 מרצדס ארהב" GLE 350D 4MATIC 2021 02/09/2026 03:32:12
3738017 הונדה ארהב" ACCORD 1998 02/09/2026 03:32:10
90878901 אופל גרמניה INSIGNIA 2014 02/09/2026 03:32:10
4644817 הונדה יפן CIVIC 1999 02/09/2026 03:32:09
62290104 צ'רי סין TIGGO8PRO PHEV 2026 02/09/2026 03:32:08
2850979 רנו צרפת KANGOO 2012 02/09/2026 03:32:05
31242102 מ.ג סין EHS PHEV 2022 02/09/2026 03:32:05
66517702 טויוטה יפן RAV 4 HYBRID 2021 02/09/2026 03:32:05
6625173 פולקסווגן גרמניה NEW TRANSPORTER 2011 02/09/2026 03:32:04
4198976 יונדאי טורקיה ACCENT 2011 02/09/2026 03:32:02
51564802 קאדילאק ארהב" XT5 2022 02/09/2026 03:32:00
5791486 טויוטה טורקיה COROLLA 2017 02/09/2026 03:32:00
89759603 טויוטה יפן COROLLA CROSS 2024 02/09/2026 03:31:59
8125173 מיצובישי יפן LANCER 2010 02/09/2026 03:31:58
24678502 סקודה צ'כיה KODIAQ 2020 02/09/2026 03:31:57
4728632 טויוטה טורקיה VERSO 2015 02/09/2026 03:31:56
77780803 יונדאי קוריאה הדרומית KONA HYBRID 2024 02/09/2026 03:31:54
2639076 מזדה יפן MAZDA 6 2013 02/09/2026 03:31:55
8078337 ניסאן בריטניה QASHQAI 2016 02/09/2026 03:31:54
9978812 וולבו בלגיה - 2013 02/09/2026 03:31:54
45193601 טויוטה יפן RAV 4 HYBRID 2018 02/09/2026 03:31:53
8018032 רובר בריטניה R.ROVER EVOQE 2016 02/09/2026 03:31:53
1177861 שברולט קוריאה הדרומית AVEO 2007 02/09/2026 03:31:52
5560764 סיטרואן סלובקיה C3 PICASSO 2014 02/09/2026 03:31:52
9132155 פרארי - 1982 02/09/2026 03:31:50
6266812 יונדאי הודו I10 2012 02/09/2026 03:31:49
8811157 טויוטה יפן COROLLA 2005 02/09/2026 03:31:49
513044 פרגסון - 1979 02/09/2026 03:31:48
4708830 טויוטה טורקיה COROLLA 2014 02/09/2026 03:31:47
84328003 קיה קוריאה הדרומית SELTOS 2024 02/09/2026 03:31:45
55641903 סאן יאנג טיואן - 2023 02/09/2026 03:31:44
14965703 טויוטה יפן RAV 4 HYBRID 2022 02/09/2026 03:31:42
45532002 ג'יפ ארהב" WRANGLER 2021 02/09/2026 03:31:40
30022901 ב מ וו גרמניה 330E IPERFORMAN 2018 02/09/2026 03:31:38
37594904 ב מ וו מקסיקו 218I 2025 02/09/2026 03:31:37
40604604 קיה קוריאה הדרומית PICANTO 2025 02/09/2026 03:31:37
3079712 פולקסווגן גרמניה GOLF 2013 02/09/2026 03:31:37
19640901 ניסאן ספרד NV200 2018 02/09/2026 03:31:35
24547103 מזדה יפן MAZDA CX-5 2022 02/09/2026 03:31:32
2400079 ניסאן יפן 370Z 2011 02/09/2026 03:31:31
7411123 טויוטה יפן YARIS 2001 02/09/2026 03:31:30
9830773 דימלרקריזלר-גר E270 CDI 2003 02/09/2026 03:31:29
86071801 דאצ'יה רומניה DUSTER 2019 02/09/2026 03:31:27
4821466 יונדאי טורקיה ACCENT 2009 02/09/2026 03:31:26
9329411 קיה קוריאה הדרומית FORTE 2014 02/09/2026 03:31:26
3804573 סוזוקי הונגריה SWIFT 2010 02/09/2026 03:31:26
1062932 יונדאי צ'כיה I30 2014 02/09/2026 03:31:25
1057714 רנו צרפת KANGOO 2006 02/09/2026 03:31:24
4245438 אאודי הונגריה A3 2016 02/09/2026 03:31:23
5522554 פולקסווגן ספרד POLO 2015 02/09/2026 03:31:23
11524702 קי טי אם הודו - 2021 02/09/2026 03:31:22
73010902 לינק אנד קו סין LYNKCO 01 2023 02/09/2026 03:31:21
53529703 מרצדס בנץ אוסטריה G500 2023 02/09/2026 03:31:21
31783704 ג'אקו סין JAECOO 7 PHEV 2025 02/09/2026 03:31:18
1222330 סובארו יפן WRX 2014 02/09/2026 03:31:18
9574275 מרצדס בנץ גרמנ - 2013 02/09/2026 03:31:17
3300110 פיג'ו צרפת 206 2001 02/09/2026 03:31:15
27275104 ב מ וו גרמניה M8 COMPETITION 2025 02/09/2026 03:31:14
16641203 יונדאי הודו ACCENT 2022 02/09/2026 03:31:11
14935303 טויוטה תאילנד HILUX 2022 02/09/2026 03:31:11
5693471 מזדה יפן MAZDA 2 2011 02/09/2026 03:31:10
28401203 הונדה הודו HONDA CITY 2023 02/09/2026 03:31:09
1110110 טויוטה יפן MR 2 2001 02/09/2026 03:31:08
2847910 סקודה צ'כיה OCTAVIA 2003 02/09/2026 03:31:05
74107704 שברולט ארהב" - 2026 02/09/2026 03:31:04
39465602 יונדאי טורקיה I10 2021 02/09/2026 03:31:02
25508203 מרצדס ארהב" GLS400D 4MATIC 2022 02/09/2026 03:31:02
37403202 סיאט צ'כיה ATECA STYLE 2020 02/09/2026 03:31:02
38142303 ב מ וו גרמניה 440I XDRIVE 2023 02/09/2026 03:31:00
83596202 פולקסווגן מקסיקה TIGUAN ALLSPACE 2022 02/09/2026 03:30:59
34609603 מזדה תאילנד MAZDA 2 2023 02/09/2026 03:30:57
4311354 סיאט ספרד IBIZA 2015 02/09/2026 03:30:57
9330850 מזדה יפן LANTIS-323 2003 02/09/2026 03:30:56
3738872 ביואיק ארהב" LACROSSE 2010 02/09/2026 03:30:54
8286866 טויוטה יפן COROLLA 2008 02/09/2026 03:30:52
4676969 ניסאן מקסיקו TIIDA 2009 02/09/2026 03:30:52
3317271 מזדה יפן MAZDA 5 2010 02/09/2026 03:30:50
35115402 רנו צרפת - 2021 02/09/2026 03:30:49
45157201 טויוטה צרפת YARIS 2018 02/09/2026 03:30:48
66929904 פאריזון סין - 2026 02/09/2026 03:30:48
8643064 טויוטה יפן COROLLA 2008 02/09/2026 03:30:47
72022902 סוזוקי הונגריה SX4 CROSSOVER 2022 02/09/2026 03:30:47
76899101 מיצובישי יפן ASX 2019 02/09/2026 03:30:47
91812601 שברולט ארהב" - 2019 02/09/2026 03:30:46
13782504 גילי סין GEOMETRY C 2024 02/09/2026 03:30:45
8841633 וולבו בלגיה S60 T5 2016 02/09/2026 03:30:43
9397468 ב מ וו גרמניה - 1993 02/09/2026 03:30:42
66832702 ניסאן מקסיקו SENTRA 2021 02/09/2026 03:30:38
1259011 יונדאי צ'כיה I30 2013 02/09/2026 03:30:37
2010961 מזדה יפן MAZDA 3 2007 02/09/2026 03:30:35
67509502 רובר בריטניה R ROVER EVOQUE 2022 02/09/2026 03:30:35
2122130 ב מ וו גרמניה 435I 2016 02/09/2026 03:30:32
47719204 סקודה צ'כיה KAROQ FL 2026 02/09/2026 03:30:31
76779103 סקודה צ'כיה OCTAVIA 2024 02/09/2026 03:30:28
1105035 רנו ספרד MEGANE 2001 02/09/2026 03:30:26
35042601 סקודה צ'כיה RAPID 2017 02/09/2026 03:30:25
55156002 כ.ח תנורי חימ' - 2021 02/09/2026 03:30:23
1600438 סקודה צ'כיה FABIA 2016 02/09/2026 03:30:21
93133901 מרצדס בנץ גרמנ - 2022 02/09/2026 03:30:20
7670875 רנו צרפת KANGOO 2011 02/09/2026 03:30:20
1748231 מיצובישי יפן LANCER 2014 02/09/2026 03:30:20
63021501 סקודה צ'כיה KODIAQ 2019 02/09/2026 03:30:18
82696703 טויוטה צרפת YARIS CROSS HSD 2024 02/09/2026 03:30:15
29700001 מזדה יפן CX-5 2018 02/09/2026 03:30:14
1001937 טויוטה בריטניה AURIS HYBRID 2016 02/09/2026 03:30:12
1115589 הארלי דיוידסון - 2018 02/09/2026 03:30:10
15587701 יונדאי קוריאה הדרומית I25 2017 02/09/2026 03:30:10
3388773 סוזוקי יפן SX4 2010 02/09/2026 03:30:08
1323861 אופל גרמניה VECTRA-C 2006 02/09/2026 03:30:08
1873528 סוזוקי סין - 2019 02/09/2026 03:30:07
4187730 פיאט פולין FIAT 500 1.2 2014 02/09/2026 03:30:06
1725167 פולקסווגן מקסיקה JETTA 2008 02/09/2026 03:30:05
1312263 הונדה יפן CIVIC 2007 02/09/2026 03:30:04
4248052 ניסאן בריטניה JUKE 2013 02/09/2026 03:30:02
38142303 ב מ וו גרמניה 440I XDRIVE 2023 02/09/2026 03:30:01
4694233 קיה קוריאה הדרומית PICANTO 2015 02/09/2026 03:30:00
5961789 סאן יאנג טיואן - 2017 02/09/2026 03:29:59
12341902 סקודה צ'כיה KAROQ 2019 02/09/2026 03:29:59
30459201 מזדה יפן CX-5 2018 02/09/2026 03:29:59
6074089 אדריה - 2017 02/09/2026 03:29:58
2933133 ניסאן בריטניה JUKE 2016 02/09/2026 03:29:58
31102604 יונדאי קוריאה הדרומית VENUE 2025 02/09/2026 03:29:57
1140756 ג'ון דיר ארהב" - 1986 02/09/2026 03:29:57
1035967 פיאט טורקיה DOBLO 2008 02/09/2026 03:29:56
55346101 יונדאי צ'כיה TUCSON 2019 02/09/2026 03:29:54
1163850 טויוטה טורקיה COROLLA 2003 02/09/2026 03:29:54
9333339 מרצדס בנץ גרמנ - 2016 02/09/2026 03:29:54
1163850 טויוטה טורקיה COROLLA 2003 02/09/2026 03:29:53
1068656 טויוטה טורקיה COROLLA 2004 02/09/2026 03:29:52
2552380 סקודה צ'כיה RAPID 2017 02/09/2026 03:29:51
4654535 טויוטה יפן HILUX 2001 02/09/2026 03:29:50
1511560 טויוטה יפן LAND CRUISER 2006 02/09/2026 03:29:50
55153801 מרצדס ארהב" GLE 350D 4MATIC 2019 02/09/2026 03:29:49
4652313 פיאט טורקיה DOBLO 1.6 2012 02/09/2026 03:29:49
88216202 יונדאי קוריאה הדרומית KONA HYBRID 2022 02/09/2026 03:29:46
11576604 אקספנג סין G6 2024 02/09/2026 03:29:46
64417404 אומודה סין OMODA 9 PHEV 2026 02/09/2026 03:29:44
57940603 טסלה גרמניה MODEL Y 2023 02/09/2026 03:29:44
49610204 אקספנג סין G6 2025 02/09/2026 03:29:43
30182001 ב מ וו הולנד COOPER 2018 02/09/2026 03:29:41
6251133 קיה סלובקיה SPORTAGE 2015 02/09/2026 03:29:40
44864702 רובר בריטניה R ROVER SPORT 2021 02/09/2026 03:29:40
5010938 פולקסווגן פורטוגל SCIROCCO 2016 02/09/2026 03:29:39
1614930 סובארו יפן XV 2015 02/09/2026 03:29:39
9960260 רם אור קוגוט - 2007 02/09/2026 03:29:39
9962067 סוזוקי יפן SWIFT 2008 02/09/2026 03:29:38
2028811 יונדאי קוריאה הדרומית I35 2013 02/09/2026 03:29:38
8681470 סקודה צ'כיה FABIA 2010 02/09/2026 03:29:36
13505004 פולקסווגן פורטוגל T-ROC 2025 02/09/2026 03:29:35
8177561 סקודה צ'כיה ROOMSTER 2008 02/09/2026 03:29:34
2778939 אופל בריטניה VIVARO 2016 02/09/2026 03:29:34
74047803 לקסוס יפן LEXUS NX350H 2024 02/09/2026 03:29:31
5015313 סאן יאנג טיואן - 2012 02/09/2026 03:29:30
5473856 יונדאי קוריאה הדרומית H1 2004 02/09/2026 03:29:30
63079701 סיאט ספרד IBIZA 2019 02/09/2026 03:29:29
78352903 ג'אקו סין JAECOO7 2024 02/09/2026 03:29:28
29499902 אאודי סלובקיה RSQ8 2020 02/09/2026 03:29:28
9759173 רם אור קוגוט - 2012 02/09/2026 03:29:27
9983969 פולקסווגן גרמנ - 2010 02/09/2026 03:29:27
3301339 שברולט קוריאה הדרומית SPARK 2016 02/09/2026 03:29:27
58220001 וולבו שבדיה XC60 T8 2020 02/09/2026 03:29:27
42772404 טויוטה ארהב" HIGHLANDER 2025 02/09/2026 03:29:22
3280975 שברולט ארהב" MALIBU LT 2011 02/09/2026 03:29:21
34115004 טויוטה ספרד TOYOTA CITY 2025 02/09/2026 03:29:20
4683267 קיה קוריאה הדרומית RIO 2008 02/09/2026 03:29:20
8597412 שברולט מקסיקו CAPTIVA SPORT 2013 02/09/2026 03:29:19
2550365 איסוזו תאילנד PICK-UP 2008 02/09/2026 03:29:18
2834573 יונדאי צ'כיה I30 2010 02/09/2026 03:29:18
38142303 ב מ וו גרמניה 440I XDRIVE 2023 02/09/2026 03:29:17
53735204 פורד ארהב" BRONCO 2026 02/09/2026 03:29:14
8396873 יונדאי צ'כיה I30 2010 02/09/2026 03:29:13
54334901 יונדאי קוריאה הדרומית KONA 2019 02/09/2026 03:29:12
38142303 ב מ וו גרמניה 440I XDRIVE 2023 02/09/2026 03:29:11
72020403 סקודה צ'כיה SUPERB FL 2024 02/09/2026 03:29:08
9893231 ניסאן בריטניה QASHQAI 2015 02/09/2026 03:29:08
73948103 טויוטה טורקיה TOYOTA C-HR 2024 02/09/2026 03:29:07
1016462 טויוטה יפן COROLLA 2007 02/09/2026 03:29:06
9463738 קיה קוריאה הדרומית PICANTO 2016 02/09/2026 03:29:04
20383703 מ.ג סין ZS EV 2024 02/09/2026 03:29:02
1753587 וולבו שבדיה XC90 T8 2017 02/09/2026 03:29:02
2881971 מזדה יפן MAZDA 3 2010 02/09/2026 03:29:02
3315278 הונדה יפן JAZZ HYBRID 2011 02/09/2026 03:29:02
4171579 ניסאן בריטניה NOTE 2012 02/09/2026 03:29:02
89869901 טויוטה טורקיה COROLLA SDN 2019 02/09/2026 03:29:00
1819978 סוזוקי יפן SX4 2011 02/09/2026 03:29:00
38142403 מרצדס גרמניה A250 E 2023 02/09/2026 03:29:00
9910069 מרצדס גרמניה CL500 2009 02/09/2026 03:28:58
3774017 וולבו הולנד וולבו הולנד 4דלת' 1998 02/09/2026 03:28:58
4377033 קיה קוריאה הדרומית PICANTO 2015 02/09/2026 03:28:57
38531604 ב מ וו גרמניה M440I XDRIVE 2026 02/09/2026 03:28:56
38142403 מרצדס גרמניה A250 E 2023 02/09/2026 03:28:55
79392901 פיג'ו צרפת 3008 2020 02/09/2026 03:28:54
4488527 קיה קוריאה הדרומית SPORTAGE 2000 02/09/2026 03:28:54
8314762 מזדה יפן MAZDA 3 2008 02/09/2026 03:28:54
וואטסאפ